sensor_id;sensor_type;location;lat;lon;timestamp;P1;durP1;ratioP1;P2;durP2;ratioP2
11394;SDS011;5753;54.402;10.220;2023-07-29T00:00:56;6.97;;;4.13;;
11394;SDS011;5753;54.402;10.220;2023-07-29T00:03:22;5.50;;;4.43;;
11394;SDS011;5753;54.402;10.220;2023-07-29T00:05:49;4.82;;;4.10;;
11394;SDS011;5753;54.402;10.220;2023-07-29T00:08:15;4.40;;;3.17;;
11394;SDS011;5753;54.402;10.220;2023-07-29T00:10:41;5.03;;;3.42;;
11394;SDS011;5753;54.402;10.220;2023-07-29T00:13:07;8.98;;;3.75;;
11394;SDS011;5753;54.402;10.220;2023-07-29T00:15:33;7.05;;;5.18;;
11394;SDS011;5753;54.402;10.220;2023-07-29T00:18:00;6.32;;;4.30;;
11394;SDS011;5753;54.402;10.220;2023-07-29T00:20:26;11.00;;;4.75;;
11394;SDS011;5753;54.402;10.220;2023-07-29T00:22:52;11.52;;;5.38;;
11394;SDS011;5753;54.402;10.220;2023-07-29T00:25:19;5.88;;;4.82;;
11394;SDS011;5753;54.402;10.220;2023-07-29T00:27:46;5.38;;;3.88;;
11394;SDS011;5753;54.402;10.220;2023-07-29T00:30:12;8.15;;;5.40;;
11394;SDS011;5753;54.402;10.220;2023-07-29T00:32:38;17.45;;;5.15;;
11394;SDS011;5753;54.402;10.220;2023-07-29T00:35:05;6.47;;;4.60;;
11394;SDS011;5753;54.402;10.220;2023-07-29T00:37:31;4.97;;;4.28;;
11394;SDS011;5753;54.402;10.220;2023-07-29T00:39:57;14.50;;;6.55;;
11394;SDS011;5753;54.402;10.220;2023-07-29T00:42:24;5.50;;;4.75;;
11394;SDS011;5753;54.402;10.220;2023-07-29T00:44:50;7.07;;;4.60;;
11394;SDS011;5753;54.402;10.220;2023-07-29T00:47:16;6.25;;;3.92;;
11394;SDS011;5753;54.402;10.220;2023-07-29T00:49:43;7.82;;;4.88;;
11394;SDS011;5753;54.402;10.220;2023-07-29T00:52:10;7.50;;;5.22;;
11394;SDS011;5753;54.402;10.220;2023-07-29T00:54:38;8.43;;;5.43;;
11394;SDS011;5753;54.402;10.220;2023-07-29T00:57:05;8.15;;;5.80;;
11394;SDS011;5753;54.402;10.220;2023-07-29T00:59:34;14.35;;;7.13;;
11394;SDS011;5753;54.402;10.220;2023-07-29T01:02:00;6.50;;;5.85;;
11394;SDS011;5753;54.402;10.220;2023-07-29T01:04:27;9.57;;;7.05;;
11394;SDS011;5753;54.402;10.220;2023-07-29T01:06:58;7.50;;;5.25;;
11394;SDS011;5753;54.402;10.220;2023-07-29T01:15:16;11.18;;;6.18;;
11394;SDS011;5753;54.402;10.220;2023-07-29T01:17:49;7.93;;;5.70;;
11394;SDS011;5753;54.402;10.220;2023-07-29T01:20:20;7.97;;;5.50;;
11394;SDS011;5753;54.402;10.220;2023-07-29T01:22:49;7.60;;;6.85;;
11394;SDS011;5753;54.402;10.220;2023-07-29T01:25:15;20.45;;;6.55;;
11394;SDS011;5753;54.402;10.220;2023-07-29T01:27:42;10.07;;;6.63;;
11394;SDS011;5753;54.402;10.220;2023-07-29T01:30:10;8.50;;;6.95;;
11394;SDS011;5753;54.402;10.220;2023-07-29T01:32:42;7.75;;;7.05;;
11394;SDS011;5753;54.402;10.220;2023-07-29T01:35:27;9.43;;;8.03;;
11394;SDS011;5753;54.402;10.220;2023-07-29T01:38:03;9.30;;;6.82;;
11394;SDS011;5753;54.402;10.220;2023-07-29T01:40:53;11.52;;;6.75;;
11394;SDS011;5753;54.402;10.220;2023-07-29T01:43:21;11.63;;;7.13;;
11394;SDS011;5753;54.402;10.220;2023-07-29T01:45:50;9.18;;;5.65;;
11394;SDS011;5753;54.402;10.220;2023-07-29T01:48:16;12.43;;;6.75;;
11394;SDS011;5753;54.402;10.220;2023-07-29T01:50:42;8.45;;;7.00;;
11394;SDS011;5753;54.402;10.220;2023-07-29T01:53:08;9.32;;;7.32;;
11394;SDS011;5753;54.402;10.220;2023-07-29T01:55:34;12.35;;;7.53;;
11394;SDS011;5753;54.402;10.220;2023-07-29T01:58:00;11.68;;;8.73;;
11394;SDS011;5753;54.402;10.220;2023-07-29T02:00:26;10.55;;;6.35;;
11394;SDS011;5753;54.402;10.220;2023-07-29T02:02:52;10.82;;;6.90;;
11394;SDS011;5753;54.402;10.220;2023-07-29T02:05:18;7.55;;;5.93;;
11394;SDS011;5753;54.402;10.220;2023-07-29T02:07:45;9.38;;;8.40;;
11394;SDS011;5753;54.402;10.220;2023-07-29T02:10:11;8.23;;;5.93;;
11394;SDS011;5753;54.402;10.220;2023-07-29T02:12:37;5.75;;;4.45;;
11394;SDS011;5753;54.402;10.220;2023-07-29T02:15:03;6.15;;;4.88;;
11394;SDS011;5753;54.402;10.220;2023-07-29T02:17:30;5.80;;;4.88;;
11394;SDS011;5753;54.402;10.220;2023-07-29T02:19:56;11.27;;;7.43;;
11394;SDS011;5753;54.402;10.220;2023-07-29T02:22:22;8.80;;;6.32;;
11394;SDS011;5753;54.402;10.220;2023-07-29T02:24:48;7.95;;;5.45;;
11394;SDS011;5753;54.402;10.220;2023-07-29T02:27:15;5.40;;;4.85;;
11394;SDS011;5753;54.402;10.220;2023-07-29T02:29:41;5.50;;;4.57;;
11394;SDS011;5753;54.402;10.220;2023-07-29T02:32:07;6.47;;;4.82;;
11394;SDS011;5753;54.402;10.220;2023-07-29T02:34:33;9.65;;;6.55;;
11394;SDS011;5753;54.402;10.220;2023-07-29T02:36:59;7.15;;;5.55;;
11394;SDS011;5753;54.402;10.220;2023-07-29T02:39:25;7.82;;;5.47;;
11394;SDS011;5753;54.402;10.220;2023-07-29T02:41:51;8.80;;;6.13;;
11394;SDS011;5753;54.402;10.220;2023-07-29T02:44:17;7.78;;;4.55;;
11394;SDS011;5753;54.402;10.220;2023-07-29T02:46:45;7.50;;;5.47;;
11394;SDS011;5753;54.402;10.220;2023-07-29T02:49:11;8.10;;;5.57;;
11394;SDS011;5753;54.402;10.220;2023-07-29T02:51:37;13.75;;;5.97;;
11394;SDS011;5753;54.402;10.220;2023-07-29T02:54:03;9.38;;;6.50;;
11394;SDS011;5753;54.402;10.220;2023-07-29T02:56:29;6.55;;;5.95;;
11394;SDS011;5753;54.402;10.220;2023-07-29T02:58:58;5.93;;;4.13;;
11394;SDS011;5753;54.402;10.220;2023-07-29T03:01:25;10.55;;;5.30;;
11394;SDS011;5753;54.402;10.220;2023-07-29T03:03:51;5.05;;;4.28;;
11394;SDS011;5753;54.402;10.220;2023-07-29T03:06:17;8.77;;;5.43;;
11394;SDS011;5753;54.402;10.220;2023-07-29T03:08:44;7.43;;;6.22;;
11394;SDS011;5753;54.402;10.220;2023-07-29T03:11:11;6.45;;;5.15;;
11394;SDS011;5753;54.402;10.220;2023-07-29T03:13:39;7.55;;;4.93;;
11394;SDS011;5753;54.402;10.220;2023-07-29T03:16:08;11.35;;;6.55;;
11394;SDS011;5753;54.402;10.220;2023-07-29T03:18:36;8.25;;;5.20;;
11394;SDS011;5753;54.402;10.220;2023-07-29T03:21:03;9.65;;;4.97;;
11394;SDS011;5753;54.402;10.220;2023-07-29T03:23:30;5.53;;;4.78;;
11394;SDS011;5753;54.402;10.220;2023-07-29T03:25:58;7.22;;;4.35;;
11394;SDS011;5753;54.402;10.220;2023-07-29T03:28:26;6.20;;;5.28;;
11394;SDS011;5753;54.402;10.220;2023-07-29T03:30:54;4.82;;;3.60;;
11394;SDS011;5753;54.402;10.220;2023-07-29T03:33:21;7.80;;;5.82;;
11394;SDS011;5753;54.402;10.220;2023-07-29T03:35:47;7.45;;;5.15;;
11394;SDS011;5753;54.402;10.220;2023-07-29T03:38:14;8.75;;;6.10;;
11394;SDS011;5753;54.402;10.220;2023-07-29T03:40:41;8.10;;;5.55;;
11394;SDS011;5753;54.402;10.220;2023-07-29T03:43:07;7.88;;;5.85;;
11394;SDS011;5753;54.402;10.220;2023-07-29T03:45:34;9.98;;;5.90;;
11394;SDS011;5753;54.402;10.220;2023-07-29T03:48:02;9.65;;;6.82;;
11394;SDS011;5753;54.402;10.220;2023-07-29T03:50:28;6.40;;;5.30;;
11394;SDS011;5753;54.402;10.220;2023-07-29T03:52:55;5.82;;;5.07;;
11394;SDS011;5753;54.402;10.220;2023-07-29T03:55:22;7.95;;;5.05;;
11394;SDS011;5753;54.402;10.220;2023-07-29T03:57:48;9.75;;;6.50;;
11394;SDS011;5753;54.402;10.220;2023-07-29T04:00:14;7.93;;;4.90;;
11394;SDS011;5753;54.402;10.220;2023-07-29T04:02:41;8.68;;;6.10;;
11394;SDS011;5753;54.402;10.220;2023-07-29T04:05:07;11.10;;;7.93;;
11394;SDS011;5753;54.402;10.220;2023-07-29T04:07:34;9.00;;;7.28;;
11394;SDS011;5753;54.402;10.220;2023-07-29T04:10:01;11.25;;;8.25;;
11394;SDS011;5753;54.402;10.220;2023-07-29T04:12:27;9.43;;;6.35;;
11394;SDS011;5753;54.402;10.220;2023-07-29T04:14:54;9.77;;;6.13;;
11394;SDS011;5753;54.402;10.220;2023-07-29T04:17:20;10.25;;;5.70;;
11394;SDS011;5753;54.402;10.220;2023-07-29T04:19:46;10.00;;;5.63;;
11394;SDS011;5753;54.402;10.220;2023-07-29T04:22:12;10.05;;;7.18;;
11394;SDS011;5753;54.402;10.220;2023-07-29T04:24:39;8.95;;;5.90;;
11394;SDS011;5753;54.402;10.220;2023-07-29T04:27:05;13.77;;;7.90;;
11394;SDS011;5753;54.402;10.220;2023-07-29T04:29:31;12.45;;;8.25;;
11394;SDS011;5753;54.402;10.220;2023-07-29T04:32:00;12.20;;;7.47;;
11394;SDS011;5753;54.402;10.220;2023-07-29T04:34:30;8.90;;;7.05;;
11394;SDS011;5753;54.402;10.220;2023-07-29T04:36:56;9.52;;;6.45;;
11394;SDS011;5753;54.402;10.220;2023-07-29T04:39:22;12.57;;;8.23;;
11394;SDS011;5753;54.402;10.220;2023-07-29T04:41:48;10.13;;;7.55;;
11394;SDS011;5753;54.402;10.220;2023-07-29T04:44:14;23.88;;;10.50;;
11394;SDS011;5753;54.402;10.220;2023-07-29T04:46:41;17.52;;;9.98;;
11394;SDS011;5753;54.402;10.220;2023-07-29T04:49:07;20.30;;;10.45;;
11394;SDS011;5753;54.402;10.220;2023-07-29T04:51:33;15.38;;;10.45;;
11394;SDS011;5753;54.402;10.220;2023-07-29T04:53:59;14.70;;;10.25;;
11394;SDS011;5753;54.402;10.220;2023-07-29T04:56:25;15.88;;;9.75;;
11394;SDS011;5753;54.402;10.220;2023-07-29T04:58:51;13.30;;;9.20;;
11394;SDS011;5753;54.402;10.220;2023-07-29T05:01:18;15.07;;;10.27;;
11394;SDS011;5753;54.402;10.220;2023-07-29T05:03:44;19.15;;;9.85;;
11394;SDS011;5753;54.402;10.220;2023-07-29T05:06:11;12.82;;;8.00;;
11394;SDS011;5753;54.402;10.220;2023-07-29T05:08:37;12.35;;;8.15;;
11394;SDS011;5753;54.402;10.220;2023-07-29T05:11:03;14.30;;;9.10;;
11394;SDS011;5753;54.402;10.220;2023-07-29T05:13:29;15.23;;;10.98;;
11394;SDS011;5753;54.402;10.220;2023-07-29T05:15:55;9.63;;;7.40;;
11394;SDS011;5753;54.402;10.220;2023-07-29T05:18:21;12.35;;;8.93;;
11394;SDS011;5753;54.402;10.220;2023-07-29T05:20:48;16.20;;;8.32;;
11394;SDS011;5753;54.402;10.220;2023-07-29T05:23:14;12.75;;;9.30;;
11394;SDS011;5753;54.402;10.220;2023-07-29T05:25:40;11.75;;;9.30;;
11394;SDS011;5753;54.402;10.220;2023-07-29T05:28:06;13.90;;;10.27;;
11394;SDS011;5753;54.402;10.220;2023-07-29T05:30:32;12.98;;;9.63;;
11394;SDS011;5753;54.402;10.220;2023-07-29T05:33:02;9.32;;;7.53;;
11394;SDS011;5753;54.402;10.220;2023-07-29T05:35:29;16.90;;;9.88;;
11394;SDS011;5753;54.402;10.220;2023-07-29T05:37:55;12.77;;;8.70;;
11394;SDS011;5753;54.402;10.220;2023-07-29T05:40:21;16.90;;;7.82;;
11394;SDS011;5753;54.402;10.220;2023-07-29T05:42:47;13.05;;;9.95;;
11394;SDS011;5753;54.402;10.220;2023-07-29T05:45:13;15.32;;;8.50;;
11394;SDS011;5753;54.402;10.220;2023-07-29T05:47:40;12.27;;;8.25;;
11394;SDS011;5753;54.402;10.220;2023-07-29T05:50:06;13.60;;;8.07;;
11394;SDS011;5753;54.402;10.220;2023-07-29T05:52:33;9.13;;;7.43;;
11394;SDS011;5753;54.402;10.220;2023-07-29T05:55:00;10.95;;;8.40;;
11394;SDS011;5753;54.402;10.220;2023-07-29T05:57:26;15.00;;;6.90;;
11394;SDS011;5753;54.402;10.220;2023-07-29T05:59:53;11.50;;;7.45;;
11394;SDS011;5753;54.402;10.220;2023-07-29T06:02:19;8.23;;;6.30;;
11394;SDS011;5753;54.402;10.220;2023-07-29T06:04:45;9.77;;;5.60;;
11394;SDS011;5753;54.402;10.220;2023-07-29T06:07:11;10.13;;;6.70;;
11394;SDS011;5753;54.402;10.220;2023-07-29T06:09:37;13.02;;;8.10;;
11394;SDS011;5753;54.402;10.220;2023-07-29T06:12:04;8.18;;;6.88;;
11394;SDS011;5753;54.402;10.220;2023-07-29T06:14:30;11.43;;;7.47;;
11394;SDS011;5753;54.402;10.220;2023-07-29T06:16:56;10.23;;;7.35;;
11394;SDS011;5753;54.402;10.220;2023-07-29T06:19:22;9.05;;;8.18;;
11394;SDS011;5753;54.402;10.220;2023-07-29T06:21:48;9.55;;;6.38;;
11394;SDS011;5753;54.402;10.220;2023-07-29T06:24:15;13.40;;;5.97;;
11394;SDS011;5753;54.402;10.220;2023-07-29T06:26:41;9.90;;;6.50;;
11394;SDS011;5753;54.402;10.220;2023-07-29T06:29:07;7.88;;;4.88;;
11394;SDS011;5753;54.402;10.220;2023-07-29T06:31:33;6.32;;;5.30;;
11394;SDS011;5753;54.402;10.220;2023-07-29T06:33:59;7.28;;;5.05;;
11394;SDS011;5753;54.402;10.220;2023-07-29T06:36:25;6.65;;;4.85;;
11394;SDS011;5753;54.402;10.220;2023-07-29T06:38:51;5.97;;;4.70;;
11394;SDS011;5753;54.402;10.220;2023-07-29T06:41:17;3.80;;;3.33;;
11394;SDS011;5753;54.402;10.220;2023-07-29T06:43:43;8.68;;;3.80;;
11394;SDS011;5753;54.402;10.220;2023-07-29T06:46:09;6.40;;;5.07;;
11394;SDS011;5753;54.402;10.220;2023-07-29T06:48:36;6.30;;;3.75;;
11394;SDS011;5753;54.402;10.220;2023-07-29T06:51:02;2.63;;;2.42;;
11394;SDS011;5753;54.402;10.220;2023-07-29T06:53:28;4.28;;;3.50;;
11394;SDS011;5753;54.402;10.220;2023-07-29T06:55:54;5.18;;;3.20;;
11394;SDS011;5753;54.402;10.220;2023-07-29T06:58:20;7.72;;;4.68;;
11394;SDS011;5753;54.402;10.220;2023-07-29T07:00:47;4.55;;;4.15;;
11394;SDS011;5753;54.402;10.220;2023-07-29T07:03:13;4.63;;;4.03;;
11394;SDS011;5753;54.402;10.220;2023-07-29T07:05:39;4.90;;;2.83;;
11394;SDS011;5753;54.402;10.220;2023-07-29T07:08:05;5.05;;;3.40;;
11394;SDS011;5753;54.402;10.220;2023-07-29T07:10:31;6.95;;;3.03;;
11394;SDS011;5753;54.402;10.220;2023-07-29T07:12:58;6.20;;;4.07;;
11394;SDS011;5753;54.402;10.220;2023-07-29T07:15:25;5.78;;;4.10;;
11394;SDS011;5753;54.402;10.220;2023-07-29T07:17:51;4.20;;;3.17;;
11394;SDS011;5753;54.402;10.220;2023-07-29T07:20:17;4.85;;;3.70;;
11394;SDS011;5753;54.402;10.220;2023-07-29T07:22:43;4.38;;;3.97;;
11394;SDS011;5753;54.402;10.220;2023-07-29T07:25:09;5.95;;;4.88;;
11394;SDS011;5753;54.402;10.220;2023-07-29T07:27:36;5.32;;;4.20;;
11394;SDS011;5753;54.402;10.220;2023-07-29T07:30:02;4.18;;;3.75;;
11394;SDS011;5753;54.402;10.220;2023-07-29T07:32:29;5.75;;;3.90;;
11394;SDS011;5753;54.402;10.220;2023-07-29T07:34:55;4.53;;;3.85;;
11394;SDS011;5753;54.402;10.220;2023-07-29T07:37:21;4.57;;;3.72;;
11394;SDS011;5753;54.402;10.220;2023-07-29T07:39:47;4.13;;;2.97;;
11394;SDS011;5753;54.402;10.220;2023-07-29T07:42:13;4.40;;;3.30;;
11394;SDS011;5753;54.402;10.220;2023-07-29T07:44:39;4.80;;;4.30;;
11394;SDS011;5753;54.402;10.220;2023-07-29T07:47:05;9.40;;;6.32;;
11394;SDS011;5753;54.402;10.220;2023-07-29T07:49:31;7.90;;;6.80;;
11394;SDS011;5753;54.402;10.220;2023-07-29T07:51:57;9.20;;;7.88;;
11394;SDS011;5753;54.402;10.220;2023-07-29T07:54:23;7.22;;;5.95;;
11394;SDS011;5753;54.402;10.220;2023-07-29T07:56:50;7.88;;;6.78;;
11394;SDS011;5753;54.402;10.220;2023-07-29T07:59:16;8.70;;;7.00;;
11394;SDS011;5753;54.402;10.220;2023-07-29T08:01:42;9.20;;;6.95;;
11394;SDS011;5753;54.402;10.220;2023-07-29T08:04:08;9.00;;;6.90;;
11394;SDS011;5753;54.402;10.220;2023-07-29T08:06:34;7.53;;;6.75;;
11394;SDS011;5753;54.402;10.220;2023-07-29T08:09:00;6.80;;;6.20;;
11394;SDS011;5753;54.402;10.220;2023-07-29T08:11:26;9.68;;;7.57;;
11394;SDS011;5753;54.402;10.220;2023-07-29T08:13:53;7.57;;;6.25;;
11394;SDS011;5753;54.402;10.220;2023-07-29T08:16:19;8.95;;;7.70;;
11394;SDS011;5753;54.402;10.220;2023-07-29T08:18:45;10.75;;;8.30;;
11394;SDS011;5753;54.402;10.220;2023-07-29T08:21:12;9.48;;;7.57;;
11394;SDS011;5753;54.402;10.220;2023-07-29T08:23:38;9.00;;;8.05;;
11394;SDS011;5753;54.402;10.220;2023-07-29T08:26:04;10.27;;;7.25;;
11394;SDS011;5753;54.402;10.220;2023-07-29T08:28:32;8.77;;;7.57;;
11394;SDS011;5753;54.402;10.220;2023-07-29T08:31:03;8.95;;;7.82;;
11394;SDS011;5753;54.402;10.220;2023-07-29T08:33:30;8.88;;;7.18;;
11394;SDS011;5753;54.402;10.220;2023-07-29T08:35:58;9.23;;;8.30;;
11394;SDS011;5753;54.402;10.220;2023-07-29T08:38:24;9.00;;;8.13;;
11394;SDS011;5753;54.402;10.220;2023-07-29T08:43:35;7.63;;;6.70;;
11394;SDS011;5753;54.402;10.220;2023-07-29T08:46:06;8.43;;;6.40;;
11394;SDS011;5753;54.402;10.220;2023-07-29T08:48:36;8.85;;;6.40;;
11394;SDS011;5753;54.402;10.220;2023-07-29T08:51:06;9.57;;;6.22;;
11394;SDS011;5753;54.402;10.220;2023-07-29T08:53:37;6.65;;;6.05;;
11394;SDS011;5753;54.402;10.220;2023-07-29T08:56:04;7.63;;;6.47;;
11394;SDS011;5753;54.402;10.220;2023-07-29T08:58:31;6.13;;;4.20;;
11394;SDS011;5753;54.402;10.220;2023-07-29T09:00:58;7.68;;;5.22;;
11394;SDS011;5753;54.402;10.220;2023-07-29T09:03:25;5.93;;;5.15;;
11394;SDS011;5753;54.402;10.220;2023-07-29T09:05:51;6.40;;;4.90;;
11394;SDS011;5753;54.402;10.220;2023-07-29T09:08:20;6.13;;;5.30;;
11394;SDS011;5753;54.402;10.220;2023-07-29T09:10:47;5.68;;;4.50;;
11394;SDS011;5753;54.402;10.220;2023-07-29T09:13:14;5.10;;;4.60;;
11394;SDS011;5753;54.402;10.220;2023-07-29T09:15:40;4.63;;;4.13;;
11394;SDS011;5753;54.402;10.220;2023-07-29T09:18:11;5.90;;;4.75;;
11394;SDS011;5753;54.402;10.220;2023-07-29T09:23:09;5.30;;;4.82;;
11394;SDS011;5753;54.402;10.220;2023-07-29T09:25:36;7.97;;;5.70;;
11394;SDS011;5753;54.402;10.220;2023-07-29T09:28:12;8.88;;;5.20;;
11394;SDS011;5753;54.402;10.220;2023-07-29T09:30:40;6.85;;;4.35;;
11394;SDS011;5753;54.402;10.220;2023-07-29T09:33:08;4.97;;;4.15;;
11394;SDS011;5753;54.402;10.220;2023-07-29T09:35:35;6.18;;;5.57;;
11394;SDS011;5753;54.402;10.220;2023-07-29T09:38:03;6.00;;;5.28;;
11394;SDS011;5753;54.402;10.220;2023-07-29T09:40:35;5.80;;;5.05;;
11394;SDS011;5753;54.402;10.220;2023-07-29T09:43:05;7.22;;;5.25;;
11394;SDS011;5753;54.402;10.220;2023-07-29T09:45:33;7.13;;;4.93;;
11394;SDS011;5753;54.402;10.220;2023-07-29T09:48:00;8.43;;;5.47;;
11394;SDS011;5753;54.402;10.220;2023-07-29T09:50:28;5.88;;;5.28;;
11394;SDS011;5753;54.402;10.220;2023-07-29T09:52:54;5.53;;;5.03;;
11394;SDS011;5753;54.402;10.220;2023-07-29T09:55:23;7.32;;;5.57;;
11394;SDS011;5753;54.402;10.220;2023-07-29T09:57:57;5.22;;;4.55;;
11394;SDS011;5753;54.402;10.220;2023-07-29T10:00:29;5.55;;;4.65;;
11394;SDS011;5753;54.402;10.220;2023-07-29T10:02:55;23.42;;;7.05;;
11394;SDS011;5753;54.402;10.220;2023-07-29T10:05:25;4.15;;;3.45;;
11394;SDS011;5753;54.402;10.220;2023-07-29T10:07:52;4.97;;;4.53;;
11394;SDS011;5753;54.402;10.220;2023-07-29T10:10:20;5.00;;;4.50;;
11394;SDS011;5753;54.402;10.220;2023-07-29T10:12:46;6.50;;;3.88;;
11394;SDS011;5753;54.402;10.220;2023-07-29T10:15:13;3.70;;;3.40;;
11394;SDS011;5753;54.402;10.220;2023-07-29T10:17:39;4.18;;;3.20;;
11394;SDS011;5753;54.402;10.220;2023-07-29T10:20:09;4.15;;;3.60;;
11394;SDS011;5753;54.402;10.220;2023-07-29T10:22:40;4.55;;;3.80;;
11394;SDS011;5753;54.402;10.220;2023-07-29T10:25:08;3.97;;;3.30;;
11394;SDS011;5753;54.402;10.220;2023-07-29T10:30:20;3.22;;;2.92;;
11394;SDS011;5753;54.402;10.220;2023-07-29T10:32:49;2.53;;;2.33;;
11394;SDS011;5753;54.402;10.220;2023-07-29T10:35:18;2.78;;;2.58;;
11394;SDS011;5753;54.402;10.220;2023-07-29T10:37:44;4.43;;;2.55;;
11394;SDS011;5753;54.402;10.220;2023-07-29T10:40:11;3.22;;;2.22;;
11394;SDS011;5753;54.402;10.220;2023-07-29T10:42:38;3.00;;;2.72;;
11394;SDS011;5753;54.402;10.220;2023-07-29T10:45:24;7.57;;;5.43;;
11394;SDS011;5753;54.402;10.220;2023-07-29T10:47:50;4.97;;;2.53;;
11394;SDS011;5753;54.402;10.220;2023-07-29T10:50:17;2.70;;;2.50;;
11394;SDS011;5753;54.402;10.220;2023-07-29T10:52:44;3.25;;;2.95;;
11394;SDS011;5753;54.402;10.220;2023-07-29T10:58:19;2.47;;;2.28;;
11394;SDS011;5753;54.402;10.220;2023-07-29T11:00:45;5.10;;;3.15;;
11394;SDS011;5753;54.402;10.220;2023-07-29T11:03:12;2.30;;;2.10;;
11394;SDS011;5753;54.402;10.220;2023-07-29T11:05:43;3.58;;;3.28;;
11394;SDS011;5753;54.402;10.220;2023-07-29T11:08:17;3.15;;;2.95;;
11394;SDS011;5753;54.402;10.220;2023-07-29T11:10:44;3.30;;;3.00;;
11394;SDS011;5753;54.402;10.220;2023-07-29T11:13:27;3.58;;;3.38;;
11394;SDS011;5753;54.402;10.220;2023-07-29T11:15:54;2.83;;;2.30;;
11394;SDS011;5753;54.402;10.220;2023-07-29T11:18:23;2.97;;;2.67;;
11394;SDS011;5753;54.402;10.220;2023-07-29T11:20:53;1.63;;;1.50;;
11394;SDS011;5753;54.402;10.220;2023-07-29T11:23:21;2.10;;;1.80;;
11394;SDS011;5753;54.402;10.220;2023-07-29T11:25:54;2.92;;;2.67;;
11394;SDS011;5753;54.402;10.220;2023-07-29T11:28:20;3.17;;;2.22;;
11394;SDS011;5753;54.402;10.220;2023-07-29T11:30:47;2.20;;;1.90;;
11394;SDS011;5753;54.402;10.220;2023-07-29T11:33:16;3.83;;;2.03;;
11394;SDS011;5753;54.402;10.220;2023-07-29T11:35:44;3.63;;;3.33;;
11394;SDS011;5753;54.402;10.220;2023-07-29T11:38:14;1.98;;;1.73;;
11394;SDS011;5753;54.402;10.220;2023-07-29T11:40:41;2.92;;;2.08;;
11394;SDS011;5753;54.402;10.220;2023-07-29T11:43:08;3.45;;;1.67;;
11394;SDS011;5753;54.402;10.220;2023-07-29T11:45:34;2.35;;;1.70;;
11394;SDS011;5753;54.402;10.220;2023-07-29T11:48:03;1.83;;;1.50;;
11394;SDS011;5753;54.402;10.220;2023-07-29T11:50:32;3.38;;;1.55;;
11394;SDS011;5753;54.402;10.220;2023-07-29T11:53:00;2.03;;;1.88;;
11394;SDS011;5753;54.402;10.220;2023-07-29T11:55:26;1.55;;;1.45;;
11394;SDS011;5753;54.402;10.220;2023-07-29T11:57:52;2.20;;;2.03;;
11394;SDS011;5753;54.402;10.220;2023-07-29T12:00:18;3.40;;;1.60;;
11394;SDS011;5753;54.402;10.220;2023-07-29T12:02:45;3.00;;;2.70;;
11394;SDS011;5753;54.402;10.220;2023-07-29T12:05:14;2.38;;;1.90;;
11394;SDS011;5753;54.402;10.220;2023-07-29T12:07:41;2.38;;;1.75;;
11394;SDS011;5753;54.402;10.220;2023-07-29T12:10:09;2.90;;;1.23;;
11394;SDS011;5753;54.402;10.220;2023-07-29T12:12:46;1.75;;;1.63;;
11394;SDS011;5753;54.402;10.220;2023-07-29T12:15:25;2.55;;;1.55;;
11394;SDS011;5753;54.402;10.220;2023-07-29T12:17:53;2.28;;;1.77;;
11394;SDS011;5753;54.402;10.220;2023-07-29T12:20:21;1.42;;;1.33;;
11394;SDS011;5753;54.402;10.220;2023-07-29T12:22:51;2.33;;;1.98;;
11394;SDS011;5753;54.402;10.220;2023-07-29T12:25:21;1.88;;;1.77;;
11394;SDS011;5753;54.402;10.220;2023-07-29T12:27:48;1.80;;;1.70;;
11394;SDS011;5753;54.402;10.220;2023-07-29T12:30:14;2.33;;;1.83;;
11394;SDS011;5753;54.402;10.220;2023-07-29T12:32:45;3.90;;;2.58;;
11394;SDS011;5753;54.402;10.220;2023-07-29T12:35:12;2.22;;;2.03;;
11394;SDS011;5753;54.402;10.220;2023-07-29T12:37:38;2.38;;;2.17;;
11394;SDS011;5753;54.402;10.220;2023-07-29T12:40:08;2.05;;;1.50;;
11394;SDS011;5753;54.402;10.220;2023-07-29T12:42:54;1.98;;;1.50;;
11394;SDS011;5753;54.402;10.220;2023-07-29T12:45:21;3.53;;;2.85;;
11394;SDS011;5753;54.402;10.220;2023-07-29T12:47:51;2.13;;;1.90;;
11394;SDS011;5753;54.402;10.220;2023-07-29T12:50:18;1.77;;;1.60;;
11394;SDS011;5753;54.402;10.220;2023-07-29T12:52:44;1.92;;;1.45;;
11394;SDS011;5753;54.402;10.220;2023-07-29T12:55:10;1.95;;;1.67;;
11394;SDS011;5753;54.402;10.220;2023-07-29T12:57:38;1.98;;;1.75;;
11394;SDS011;5753;54.402;10.220;2023-07-29T13:00:06;2.20;;;2.00;;
11394;SDS011;5753;54.402;10.220;2023-07-29T13:02:34;2.40;;;2.15;;
11394;SDS011;5753;54.402;10.220;2023-07-29T13:05:00;2.13;;;1.92;;
11394;SDS011;5753;54.402;10.220;2023-07-29T13:07:26;3.58;;;1.63;;
11394;SDS011;5753;54.402;10.220;2023-07-29T13:09:52;1.83;;;1.70;;
11394;SDS011;5753;54.402;10.220;2023-07-29T13:12:18;2.50;;;2.30;;
11394;SDS011;5753;54.402;10.220;2023-07-29T13:14:45;1.90;;;1.70;;
11394;SDS011;5753;54.402;10.220;2023-07-29T13:17:11;5.55;;;1.92;;
11394;SDS011;5753;54.402;10.220;2023-07-29T13:19:37;4.78;;;2.83;;
11394;SDS011;5753;54.402;10.220;2023-07-29T13:22:03;2.17;;;1.77;;
11394;SDS011;5753;54.402;10.220;2023-07-29T13:24:29;4.55;;;2.00;;
11394;SDS011;5753;54.402;10.220;2023-07-29T13:26:57;1.52;;;1.42;;
11394;SDS011;5753;54.402;10.220;2023-07-29T13:29:23;2.25;;;2.05;;
11394;SDS011;5753;54.402;10.220;2023-07-29T13:31:49;2.08;;;1.55;;
11394;SDS011;5753;54.402;10.220;2023-07-29T13:34:15;1.73;;;1.63;;
11394;SDS011;5753;54.402;10.220;2023-07-29T13:36:41;2.03;;;1.70;;
11394;SDS011;5753;54.402;10.220;2023-07-29T13:39:07;2.13;;;1.88;;
11394;SDS011;5753;54.402;10.220;2023-07-29T13:41:33;4.68;;;1.95;;
11394;SDS011;5753;54.402;10.220;2023-07-29T13:43:59;2.60;;;2.28;;
11394;SDS011;5753;54.402;10.220;2023-07-29T13:46:25;3.42;;;2.35;;
11394;SDS011;5753;54.402;10.220;2023-07-29T13:48:51;1.77;;;1.60;;
11394;SDS011;5753;54.402;10.220;2023-07-29T13:51:17;2.47;;;1.75;;
11394;SDS011;5753;54.402;10.220;2023-07-29T13:53:43;2.10;;;1.98;;
11394;SDS011;5753;54.402;10.220;2023-07-29T13:56:09;3.22;;;2.92;;
11394;SDS011;5753;54.402;10.220;2023-07-29T13:58:35;1.80;;;1.52;;
11394;SDS011;5753;54.402;10.220;2023-07-29T14:01:02;3.15;;;2.03;;
11394;SDS011;5753;54.402;10.220;2023-07-29T14:03:28;1.50;;;1.40;;
11394;SDS011;5753;54.402;10.220;2023-07-29T14:05:54;4.93;;;1.65;;
11394;SDS011;5753;54.402;10.220;2023-07-29T14:08:20;2.28;;;2.03;;
11394;SDS011;5753;54.402;10.220;2023-07-29T14:10:48;1.20;;;1.13;;
11394;SDS011;5753;54.402;10.220;2023-07-29T14:13:14;1.85;;;1.70;;
11394;SDS011;5753;54.402;10.220;2023-07-29T14:15:40;3.60;;;1.98;;
11394;SDS011;5753;54.402;10.220;2023-07-29T14:18:06;2.47;;;1.60;;
11394;SDS011;5753;54.402;10.220;2023-07-29T14:20:33;2.70;;;2.42;;
11394;SDS011;5753;54.402;10.220;2023-07-29T14:22:59;2.25;;;2.00;;
11394;SDS011;5753;54.402;10.220;2023-07-29T14:25:26;3.78;;;2.08;;
11394;SDS011;5753;54.402;10.220;2023-07-29T14:27:52;3.15;;;2.20;;
11394;SDS011;5753;54.402;10.220;2023-07-29T14:30:19;1.70;;;1.60;;
11394;SDS011;5753;54.402;10.220;2023-07-29T14:32:45;1.70;;;1.60;;
11394;SDS011;5753;54.402;10.220;2023-07-29T14:35:11;3.10;;;2.03;;
11394;SDS011;5753;54.402;10.220;2023-07-29T14:37:38;2.05;;;1.77;;
11394;SDS011;5753;54.402;10.220;2023-07-29T14:40:04;1.50;;;1.40;;
11394;SDS011;5753;54.402;10.220;2023-07-29T14:42:31;2.63;;;1.73;;
11394;SDS011;5753;54.402;10.220;2023-07-29T14:44:57;2.67;;;1.80;;
11394;SDS011;5753;54.402;10.220;2023-07-29T14:47:23;2.40;;;2.20;;
11394;SDS011;5753;54.402;10.220;2023-07-29T14:49:49;2.78;;;1.90;;
11394;SDS011;5753;54.402;10.220;2023-07-29T14:52:15;4.13;;;1.80;;
11394;SDS011;5753;54.402;10.220;2023-07-29T14:54:41;4.72;;;2.50;;
11394;SDS011;5753;54.402;10.220;2023-07-29T14:57:07;3.53;;;2.45;;
11394;SDS011;5753;54.402;10.220;2023-07-29T14:59:34;2.28;;;1.70;;
11394;SDS011;5753;54.402;10.220;2023-07-29T15:02:00;1.83;;;1.45;;